sensor_id;sensor_type;location;lat;lon;timestamp;P1;durP1;ratioP1;P2;durP2;ratioP2
35969;SDS011;22448;51.298;6.430;2023-08-01T00:00:45;2.00;;;0.90;;
35969;SDS011;22448;51.298;6.430;2023-08-01T00:03:12;2.85;;;0.80;;
35969;SDS011;22448;51.298;6.430;2023-08-01T00:05:40;0.90;;;0.77;;
35969;SDS011;22448;51.298;6.430;2023-08-01T00:08:11;3.28;;;0.82;;
35969;SDS011;22448;51.298;6.430;2023-08-01T00:10:39;1.48;;;0.90;;
35969;SDS011;22448;51.298;6.430;2023-08-01T00:13:09;3.33;;;0.98;;
35969;SDS011;22448;51.298;6.430;2023-08-01T00:15:37;1.42;;;0.80;;
35969;SDS011;22448;51.298;6.430;2023-08-01T00:18:07;5.05;;;1.55;;
35969;SDS011;22448;51.298;6.430;2023-08-01T00:20:34;2.22;;;0.73;;
35969;SDS011;22448;51.298;6.430;2023-08-01T00:23:01;1.20;;;1.10;;
35969;SDS011;22448;51.298;6.430;2023-08-01T00:25:28;1.60;;;0.90;;
35969;SDS011;22448;51.298;6.430;2023-08-01T00:27:55;1.23;;;1.08;;
35969;SDS011;22448;51.298;6.430;2023-08-01T00:30:22;1.75;;;1.05;;
35969;SDS011;22448;51.298;6.430;2023-08-01T00:32:49;2.45;;;1.00;;
35969;SDS011;22448;51.298;6.430;2023-08-01T00:35:16;4.00;;;1.40;;
35969;SDS011;22448;51.298;6.430;2023-08-01T00:37:43;1.20;;;1.00;;
35969;SDS011;22448;51.298;6.430;2023-08-01T00:40:10;2.55;;;1.42;;
35969;SDS011;22448;51.298;6.430;2023-08-01T00:42:38;6.43;;;1.35;;
35969;SDS011;22448;51.298;6.430;2023-08-01T00:45:05;1.80;;;1.00;;
35969;SDS011;22448;51.298;6.430;2023-08-01T00:47:33;3.58;;;1.52;;
35969;SDS011;22448;51.298;6.430;2023-08-01T00:50:01;7.03;;;1.30;;
35969;SDS011;22448;51.298;6.430;2023-08-01T00:52:28;1.75;;;1.30;;
35969;SDS011;22448;51.298;6.430;2023-08-01T00:54:56;3.28;;;1.30;;
35969;SDS011;22448;51.298;6.430;2023-08-01T00:57:23;2.38;;;1.48;;
35969;SDS011;22448;51.298;6.430;2023-08-01T00:59:51;3.08;;;1.80;;
35969;SDS011;22448;51.298;6.430;2023-08-01T01:02:18;2.65;;;1.80;;
35969;SDS011;22448;51.298;6.430;2023-08-01T01:04:45;4.07;;;1.90;;
35969;SDS011;22448;51.298;6.430;2023-08-01T01:07:12;2.53;;;2.00;;
35969;SDS011;22448;51.298;6.430;2023-08-01T01:09:41;3.28;;;2.10;;
35969;SDS011;22448;51.298;6.430;2023-08-01T01:12:08;2.17;;;2.00;;
35969;SDS011;22448;51.298;6.430;2023-08-01T01:14:35;3.58;;;2.00;;
35969;SDS011;22448;51.298;6.430;2023-08-01T01:17:02;3.72;;;2.40;;
35969;SDS011;22448;51.298;6.430;2023-08-01T01:19:30;5.63;;;2.20;;
35969;SDS011;22448;51.298;6.430;2023-08-01T01:22:15;4.07;;;2.05;;
35969;SDS011;22448;51.298;6.430;2023-08-01T01:24:44;4.07;;;2.67;;
35969;SDS011;22448;51.298;6.430;2023-08-01T01:27:13;2.97;;;2.53;;
35969;SDS011;22448;51.298;6.430;2023-08-01T01:29:43;6.10;;;2.95;;
35969;SDS011;22448;51.298;6.430;2023-08-01T01:32:11;3.72;;;3.42;;
35969;SDS011;22448;51.298;6.430;2023-08-01T01:34:39;5.63;;;3.40;;
35969;SDS011;22448;51.298;6.430;2023-08-01T01:37:06;6.10;;;3.85;;
35969;SDS011;22448;51.298;6.430;2023-08-01T01:39:33;3.38;;;3.08;;
35969;SDS011;22448;51.298;6.430;2023-08-01T01:42:01;6.38;;;3.20;;
35969;SDS011;22448;51.298;6.430;2023-08-01T01:44:29;9.77;;;4.30;;
35969;SDS011;22448;51.298;6.430;2023-08-01T01:46:56;6.90;;;5.40;;
35969;SDS011;22448;51.298;6.430;2023-08-01T01:49:23;11.57;;;7.47;;
35969;SDS011;22448;51.298;6.430;2023-08-01T01:51:52;7.70;;;6.78;;
35969;SDS011;22448;51.298;6.430;2023-08-01T01:54:19;13.85;;;9.20;;
35969;SDS011;22448;51.298;6.430;2023-08-01T01:56:46;13.13;;;10.48;;
35969;SDS011;22448;51.298;6.430;2023-08-01T01:59:13;16.55;;;11.27;;
35969;SDS011;22448;51.298;6.430;2023-08-01T02:01:40;13.80;;;10.80;;
35969;SDS011;22448;51.298;6.430;2023-08-01T02:04:07;12.25;;;8.38;;
35969;SDS011;22448;51.298;6.430;2023-08-01T02:06:34;14.45;;;8.75;;
35969;SDS011;22448;51.298;6.430;2023-08-01T02:09:02;13.77;;;7.90;;
35969;SDS011;22448;51.298;6.430;2023-08-01T02:11:30;13.68;;;8.23;;
35969;SDS011;22448;51.298;6.430;2023-08-01T02:13:57;14.82;;;8.23;;
35969;SDS011;22448;51.298;6.430;2023-08-01T02:16:24;19.00;;;10.65;;
35969;SDS011;22448;51.298;6.430;2023-08-01T02:18:51;16.27;;;10.82;;
35969;SDS011;22448;51.298;6.430;2023-08-01T02:21:18;19.05;;;12.10;;
35969;SDS011;22448;51.298;6.430;2023-08-01T02:23:45;17.33;;;13.35;;
35969;SDS011;22448;51.298;6.430;2023-08-01T02:26:12;20.42;;;14.90;;
35969;SDS011;22448;51.298;6.430;2023-08-01T02:28:39;30.98;;;16.17;;
35969;SDS011;22448;51.298;6.430;2023-08-01T02:31:06;29.30;;;16.33;;
35969;SDS011;22448;51.298;6.430;2023-08-01T02:33:33;26.98;;;18.30;;
35969;SDS011;22448;51.298;6.430;2023-08-01T02:36:01;28.13;;;18.48;;
35969;SDS011;22448;51.298;6.430;2023-08-01T02:38:28;27.52;;;17.48;;
35969;SDS011;22448;51.298;6.430;2023-08-01T02:40:55;27.23;;;18.13;;
35969;SDS011;22448;51.298;6.430;2023-08-01T02:43:22;24.23;;;18.23;;
35969;SDS011;22448;51.298;6.430;2023-08-01T02:45:49;30.10;;;18.35;;
35969;SDS011;22448;51.298;6.430;2023-08-01T02:48:16;34.47;;;18.40;;
35969;SDS011;22448;51.298;6.430;2023-08-01T02:50:43;23.60;;;16.73;;
35969;SDS011;22448;51.298;6.430;2023-08-01T02:53:10;29.63;;;17.20;;
35969;SDS011;22448;51.298;6.430;2023-08-01T02:55:37;31.02;;;16.60;;
35969;SDS011;22448;51.298;6.430;2023-08-01T02:58:05;28.77;;;16.42;;
35969;SDS011;22448;51.298;6.430;2023-08-01T03:00:32;32.72;;;16.88;;
35969;SDS011;22448;51.298;6.430;2023-08-01T03:02:59;27.50;;;17.67;;
35969;SDS011;22448;51.298;6.430;2023-08-01T03:05:26;32.58;;;17.48;;
35969;SDS011;22448;51.298;6.430;2023-08-01T03:07:53;34.25;;;18.80;;
35969;SDS011;22448;51.298;6.430;2023-08-01T03:10:20;33.10;;;20.10;;
35969;SDS011;22448;51.298;6.430;2023-08-01T03:13:01;33.35;;;19.15;;
35969;SDS011;22448;51.298;6.430;2023-08-01T03:15:28;39.53;;;19.65;;
35969;SDS011;22448;51.298;6.430;2023-08-01T03:17:55;40.35;;;19.55;;
35969;SDS011;22448;51.298;6.430;2023-08-01T03:20:22;38.00;;;21.00;;
35969;SDS011;22448;51.298;6.430;2023-08-01T03:22:49;39.53;;;20.58;;
35969;SDS011;22448;51.298;6.430;2023-08-01T03:25:17;45.03;;;21.80;;
35969;SDS011;22448;51.298;6.430;2023-08-01T03:27:44;42.50;;;20.63;;
35969;SDS011;22448;51.298;6.430;2023-08-01T03:30:11;35.67;;;19.70;;
35969;SDS011;22448;51.298;6.430;2023-08-01T03:32:39;41.95;;;21.40;;
35969;SDS011;22448;51.298;6.430;2023-08-01T03:35:07;33.47;;;19.38;;
35969;SDS011;22448;51.298;6.430;2023-08-01T03:37:34;36.05;;;19.23;;
35969;SDS011;22448;51.298;6.430;2023-08-01T03:40:01;38.75;;;20.52;;
35969;SDS011;22448;51.298;6.430;2023-08-01T03:42:28;40.60;;;21.38;;
35969;SDS011;22448;51.298;6.430;2023-08-01T03:44:55;39.67;;;20.95;;
35969;SDS011;22448;51.298;6.430;2023-08-01T03:47:22;40.72;;;22.77;;
35969;SDS011;22448;51.298;6.430;2023-08-01T03:49:50;41.58;;;22.65;;
35969;SDS011;22448;51.298;6.430;2023-08-01T03:52:17;44.33;;;23.33;;
35969;SDS011;22448;51.298;6.430;2023-08-01T03:54:44;40.40;;;25.42;;
35969;SDS011;22448;51.298;6.430;2023-08-01T03:57:11;41.83;;;25.63;;
35969;SDS011;22448;51.298;6.430;2023-08-01T03:59:38;48.47;;;27.90;;
35969;SDS011;22448;51.298;6.430;2023-08-01T04:02:05;57.83;;;30.15;;
35969;SDS011;22448;51.298;6.430;2023-08-01T04:04:32;47.88;;;30.13;;
35969;SDS011;22448;51.298;6.430;2023-08-01T04:06:59;59.35;;;31.77;;
35969;SDS011;22448;51.298;6.430;2023-08-01T04:09:26;65.70;;;34.20;;
35969;SDS011;22448;51.298;6.430;2023-08-01T04:11:53;60.70;;;32.28;;
35969;SDS011;22448;51.298;6.430;2023-08-01T04:14:20;65.53;;;35.33;;
35969;SDS011;22448;51.298;6.430;2023-08-01T04:16:48;63.33;;;35.40;;
35969;SDS011;22448;51.298;6.430;2023-08-01T04:19:15;59.83;;;34.88;;
35969;SDS011;22448;51.298;6.430;2023-08-01T04:21:42;65.70;;;36.35;;
35969;SDS011;22448;51.298;6.430;2023-08-01T04:24:09;72.20;;;36.67;;
35969;SDS011;22448;51.298;6.430;2023-08-01T04:26:36;70.75;;;36.47;;
35969;SDS011;22448;51.298;6.430;2023-08-01T04:29:04;66.95;;;35.72;;
35969;SDS011;22448;51.298;6.430;2023-08-01T04:31:31;62.97;;;34.83;;
35969;SDS011;22448;51.298;6.430;2023-08-01T04:33:59;65.13;;;35.92;;
35969;SDS011;22448;51.298;6.430;2023-08-01T04:36:26;70.80;;;34.58;;
35969;SDS011;22448;51.298;6.430;2023-08-01T04:38:53;69.38;;;33.67;;
35969;SDS011;22448;51.298;6.430;2023-08-01T04:41:20;66.47;;;33.97;;
35969;SDS011;22448;51.298;6.430;2023-08-01T04:43:47;64.18;;;34.45;;
35969;SDS011;22448;51.298;6.430;2023-08-01T04:46:14;64.03;;;34.13;;
35969;SDS011;22448;51.298;6.430;2023-08-01T04:48:41;68.72;;;33.65;;
35969;SDS011;22448;51.298;6.430;2023-08-01T04:51:08;62.42;;;34.05;;
35969;SDS011;22448;51.298;6.430;2023-08-01T04:53:35;68.95;;;33.70;;
35969;SDS011;22448;51.298;6.430;2023-08-01T04:56:02;56.13;;;32.47;;
35969;SDS011;22448;51.298;6.430;2023-08-01T04:58:29;58.67;;;32.13;;
35969;SDS011;22448;51.298;6.430;2023-08-01T05:00:57;63.05;;;33.30;;
35969;SDS011;22448;51.298;6.430;2023-08-01T05:03:24;60.83;;;33.42;;
35969;SDS011;22448;51.298;6.430;2023-08-01T05:05:51;60.90;;;33.70;;
35969;SDS011;22448;51.298;6.430;2023-08-01T05:08:18;57.95;;;32.92;;
35969;SDS011;22448;51.298;6.430;2023-08-01T05:10:45;55.75;;;31.63;;
35969;SDS011;22448;51.298;6.430;2023-08-01T05:13:12;58.25;;;31.15;;
35969;SDS011;22448;51.298;6.430;2023-08-01T05:15:39;53.83;;;29.77;;
35969;SDS011;22448;51.298;6.430;2023-08-01T05:18:06;51.55;;;28.15;;
35969;SDS011;22448;51.298;6.430;2023-08-01T05:20:33;64.47;;;31.17;;
35969;SDS011;22448;51.298;6.430;2023-08-01T05:23:01;47.33;;;29.13;;
35969;SDS011;22448;51.298;6.430;2023-08-01T05:25:28;59.92;;;30.45;;
35969;SDS011;22448;51.298;6.430;2023-08-01T05:27:55;56.83;;;29.95;;
35969;SDS011;22448;51.298;6.430;2023-08-01T05:30:22;54.03;;;28.63;;
35969;SDS011;22448;51.298;6.430;2023-08-01T05:32:50;47.42;;;26.90;;
35969;SDS011;22448;51.298;6.430;2023-08-01T05:35:17;44.28;;;25.40;;
35969;SDS011;22448;51.298;6.430;2023-08-01T05:37:45;48.60;;;26.13;;
35969;SDS011;22448;51.298;6.430;2023-08-01T05:40:12;43.15;;;24.58;;
35969;SDS011;22448;51.298;6.430;2023-08-01T05:42:39;47.65;;;25.23;;
35969;SDS011;22448;51.298;6.430;2023-08-01T05:45:06;45.30;;;24.25;;
35969;SDS011;22448;51.298;6.430;2023-08-01T05:47:34;42.40;;;23.00;;
35969;SDS011;22448;51.298;6.430;2023-08-01T05:50:03;49.00;;;24.42;;
35969;SDS011;22448;51.298;6.430;2023-08-01T05:52:30;50.88;;;23.95;;
35969;SDS011;22448;51.298;6.430;2023-08-01T05:54:57;41.83;;;23.27;;
35969;SDS011;22448;51.298;6.430;2023-08-01T05:57:24;43.47;;;22.65;;
35969;SDS011;22448;51.298;6.430;2023-08-01T05:59:51;40.70;;;22.63;;
35969;SDS011;22448;51.298;6.430;2023-08-01T06:02:18;39.70;;;21.40;;
35969;SDS011;22448;51.298;6.430;2023-08-01T06:04:45;40.15;;;20.85;;
35969;SDS011;22448;51.298;6.430;2023-08-01T06:07:12;41.90;;;19.85;;
35969;SDS011;22448;51.298;6.430;2023-08-01T06:09:39;33.60;;;20.58;;
35969;SDS011;22448;51.298;6.430;2023-08-01T06:12:06;39.25;;;17.80;;
35969;SDS011;22448;51.298;6.430;2023-08-01T06:14:34;37.13;;;18.25;;
35969;SDS011;22448;51.298;6.430;2023-08-01T06:17:01;37.58;;;18.55;;
35969;SDS011;22448;51.298;6.430;2023-08-01T06:19:28;32.40;;;16.58;;
35969;SDS011;22448;51.298;6.430;2023-08-01T06:21:55;31.33;;;16.70;;
35969;SDS011;22448;51.298;6.430;2023-08-01T06:24:22;33.92;;;15.93;;
35969;SDS011;22448;51.298;6.430;2023-08-01T06:26:49;35.28;;;18.40;;
35969;SDS011;22448;51.298;6.430;2023-08-01T06:29:16;35.15;;;17.70;;
35969;SDS011;22448;51.298;6.430;2023-08-01T06:31:43;29.60;;;14.95;;
35969;SDS011;22448;51.298;6.430;2023-08-01T06:34:10;29.25;;;13.77;;
35969;SDS011;22448;51.298;6.430;2023-08-01T06:36:37;25.15;;;13.55;;
35969;SDS011;22448;51.298;6.430;2023-08-01T06:39:05;27.70;;;12.75;;
35969;SDS011;22448;51.298;6.430;2023-08-01T06:41:32;25.10;;;13.23;;
35969;SDS011;22448;51.298;6.430;2023-08-01T06:43:59;24.23;;;13.65;;
35969;SDS011;22448;51.298;6.430;2023-08-01T06:46:27;30.23;;;12.75;;
35969;SDS011;22448;51.298;6.430;2023-08-01T06:48:54;25.23;;;12.25;;
35969;SDS011;22448;51.298;6.430;2023-08-01T06:51:21;23.60;;;11.80;;
35969;SDS011;22448;51.298;6.430;2023-08-01T06:53:48;25.45;;;11.60;;
35969;SDS011;22448;51.298;6.430;2023-08-01T06:56:15;21.73;;;11.15;;
35969;SDS011;22448;51.298;6.430;2023-08-01T06:58:42;33.35;;;11.57;;
35969;SDS011;22448;51.298;6.430;2023-08-01T07:01:09;20.58;;;10.90;;
35969;SDS011;22448;51.298;6.430;2023-08-01T07:03:36;24.05;;;11.43;;
35969;SDS011;22448;51.298;6.430;2023-08-01T07:06:03;25.50;;;12.30;;
35969;SDS011;22448;51.298;6.430;2023-08-01T07:08:33;24.48;;;11.57;;
35969;SDS011;22448;51.298;6.430;2023-08-01T07:11:00;31.38;;;13.48;;
35969;SDS011;22448;51.298;6.430;2023-08-01T07:13:27;25.67;;;11.80;;
35969;SDS011;22448;51.298;6.430;2023-08-01T07:15:54;25.48;;;12.20;;
35969;SDS011;22448;51.298;6.430;2023-08-01T07:18:21;23.55;;;12.35;;
35969;SDS011;22448;51.298;6.430;2023-08-01T07:20:58;31.33;;;11.80;;
35969;SDS011;22448;51.298;6.430;2023-08-01T07:23:26;21.73;;;11.88;;
35969;SDS011;22448;51.298;6.430;2023-08-01T07:25:53;24.15;;;12.00;;
35969;SDS011;22448;51.298;6.430;2023-08-01T07:28:20;25.42;;;11.80;;
35969;SDS011;22448;51.298;6.430;2023-08-01T07:30:47;25.00;;;11.52;;
35969;SDS011;22448;51.298;6.430;2023-08-01T07:33:15;19.95;;;11.00;;
35969;SDS011;22448;51.298;6.430;2023-08-01T07:35:42;24.80;;;11.30;;
35969;SDS011;22448;51.298;6.430;2023-08-01T07:38:09;18.25;;;10.50;;
35969;SDS011;22448;51.298;6.430;2023-08-01T07:40:36;24.90;;;11.02;;
35969;SDS011;22448;51.298;6.430;2023-08-01T07:43:03;23.10;;;10.73;;
35969;SDS011;22448;51.298;6.430;2023-08-01T07:45:32;20.52;;;10.77;;
35969;SDS011;22448;51.298;6.430;2023-08-01T07:48:01;21.77;;;9.63;;
35969;SDS011;22448;51.298;6.430;2023-08-01T07:50:28;21.48;;;9.68;;
35969;SDS011;22448;51.298;6.430;2023-08-01T07:52:55;16.15;;;8.80;;
35969;SDS011;22448;51.298;6.430;2023-08-01T07:55:22;20.92;;;9.20;;
35969;SDS011;22448;51.298;6.430;2023-08-01T07:57:49;24.02;;;9.13;;
35969;SDS011;22448;51.298;6.430;2023-08-01T08:00:16;20.02;;;8.57;;
35969;SDS011;22448;51.298;6.430;2023-08-01T08:02:44;18.48;;;8.23;;
35969;SDS011;22448;51.298;6.430;2023-08-01T08:05:12;15.63;;;7.50;;
35969;SDS011;22448;51.298;6.430;2023-08-01T08:07:39;23.13;;;8.50;;
35969;SDS011;22448;51.298;6.430;2023-08-01T08:10:06;17.58;;;8.18;;
35969;SDS011;22448;51.298;6.430;2023-08-01T08:12:34;27.60;;;9.30;;
35969;SDS011;22448;51.298;6.430;2023-08-01T08:15:01;21.73;;;9.65;;
35969;SDS011;22448;51.298;6.430;2023-08-01T08:17:27;21.45;;;11.65;;
35969;SDS011;22448;51.298;6.430;2023-08-01T08:19:54;23.35;;;9.95;;
35969;SDS011;22448;51.298;6.430;2023-08-01T08:22:21;23.25;;;10.05;;
35969;SDS011;22448;51.298;6.430;2023-08-01T08:24:48;15.75;;;8.95;;
35969;SDS011;22448;51.298;6.430;2023-08-01T08:27:16;20.60;;;9.77;;
35969;SDS011;22448;51.298;6.430;2023-08-01T08:29:43;14.75;;;8.02;;
35969;SDS011;22448;51.298;6.430;2023-08-01T08:32:10;19.42;;;8.15;;
35969;SDS011;22448;51.298;6.430;2023-08-01T08:34:37;21.75;;;7.25;;
35969;SDS011;22448;51.298;6.430;2023-08-01T08:37:06;13.25;;;5.68;;
35969;SDS011;22448;51.298;6.430;2023-08-01T08:39:33;10.85;;;5.20;;
35969;SDS011;22448;51.298;6.430;2023-08-01T08:42:00;15.65;;;5.53;;
35969;SDS011;22448;51.298;6.430;2023-08-01T08:44:27;17.45;;;5.57;;
35969;SDS011;22448;51.298;6.430;2023-08-01T08:46:58;16.23;;;5.28;;
35969;SDS011;22448;51.298;6.430;2023-08-01T08:49:32;14.30;;;5.40;;
35969;SDS011;22448;51.298;6.430;2023-08-01T08:52:00;18.67;;;6.05;;
35969;SDS011;22448;51.298;6.430;2023-08-01T08:54:29;13.68;;;5.10;;
35969;SDS011;22448;51.298;6.430;2023-08-01T08:56:58;17.33;;;6.30;;
35969;SDS011;22448;51.298;6.430;2023-08-01T08:59:25;19.10;;;5.95;;
35969;SDS011;22448;51.298;6.430;2023-08-01T09:01:55;11.63;;;6.30;;
35969;SDS011;22448;51.298;6.430;2023-08-01T09:04:22;20.90;;;7.05;;
35969;SDS011;22448;51.298;6.430;2023-08-01T09:06:49;15.40;;;7.57;;
35969;SDS011;22448;51.298;6.430;2023-08-01T09:09:21;18.40;;;8.38;;
35969;SDS011;22448;51.298;6.430;2023-08-01T09:11:52;17.15;;;8.75;;
35969;SDS011;22448;51.298;6.430;2023-08-01T09:14:22;13.25;;;7.53;;
35969;SDS011;22448;51.298;6.430;2023-08-01T09:16:49;15.77;;;7.20;;
35969;SDS011;22448;51.298;6.430;2023-08-01T09:19:20;16.58;;;8.27;;
35969;SDS011;22448;51.298;6.430;2023-08-01T09:21:50;21.70;;;7.38;;
35969;SDS011;22448;51.298;6.430;2023-08-01T09:24:18;17.30;;;6.75;;
35969;SDS011;22448;51.298;6.430;2023-08-01T09:26:47;12.65;;;6.20;;
35969;SDS011;22448;51.298;6.430;2023-08-01T09:29:18;17.83;;;7.30;;
35969;SDS011;22448;51.298;6.430;2023-08-01T09:31:46;13.77;;;6.57;;
35969;SDS011;22448;51.298;6.430;2023-08-01T09:34:19;18.30;;;6.47;;
35969;SDS011;22448;51.298;6.430;2023-08-01T09:36:51;12.68;;;6.30;;
35969;SDS011;22448;51.298;6.430;2023-08-01T09:39:24;17.17;;;6.43;;
35969;SDS011;22448;51.298;6.430;2023-08-01T09:41:58;17.20;;;6.68;;
35969;SDS011;22448;51.298;6.430;2023-08-01T09:44:26;14.57;;;6.68;;
35969;SDS011;22448;51.298;6.430;2023-08-01T09:46:55;11.55;;;5.88;;
35969;SDS011;22448;51.298;6.430;2023-08-01T09:49:23;12.73;;;5.75;;
35969;SDS011;22448;51.298;6.430;2023-08-01T09:51:51;16.13;;;5.78;;
35969;SDS011;22448;51.298;6.430;2023-08-01T09:54:18;14.68;;;6.53;;
35969;SDS011;22448;51.298;6.430;2023-08-01T09:56:48;15.30;;;6.63;;
35969;SDS011;22448;51.298;6.430;2023-08-01T09:59:24;17.80;;;6.90;;
35969;SDS011;22448;51.298;6.430;2023-08-01T10:01:55;15.30;;;6.55;;
35969;SDS011;22448;51.298;6.430;2023-08-01T10:04:25;11.88;;;6.25;;
35969;SDS011;22448;51.298;6.430;2023-08-01T10:06:54;13.63;;;6.05;;
35969;SDS011;22448;51.298;6.430;2023-08-01T10:09:26;15.83;;;6.20;;
35969;SDS011;22448;51.298;6.430;2023-08-01T10:11:56;13.98;;;5.13;;
35969;SDS011;22448;51.298;6.430;2023-08-01T10:14:25;14.75;;;4.93;;
35969;SDS011;22448;51.298;6.430;2023-08-01T10:16:52;12.18;;;4.95;;
35969;SDS011;22448;51.298;6.430;2023-08-01T10:19:21;13.30;;;5.90;;
35969;SDS011;22448;51.298;6.430;2023-08-01T10:21:49;16.75;;;5.93;;
35969;SDS011;22448;51.298;6.430;2023-08-01T10:24:20;17.23;;;6.13;;
35969;SDS011;22448;51.298;6.430;2023-08-01T10:26:47;15.57;;;6.20;;
35969;SDS011;22448;51.298;6.430;2023-08-01T10:29:15;15.68;;;5.63;;
35969;SDS011;22448;51.298;6.430;2023-08-01T10:31:54;15.27;;;5.70;;
35969;SDS011;22448;51.298;6.430;2023-08-01T10:34:21;14.43;;;4.93;;
35969;SDS011;22448;51.298;6.430;2023-08-01T10:36:55;18.38;;;5.32;;
35969;SDS011;22448;51.298;6.430;2023-08-01T10:39:24;12.73;;;5.50;;
35969;SDS011;22448;51.298;6.430;2023-08-01T10:41:59;14.18;;;5.75;;
35969;SDS011;22448;51.298;6.430;2023-08-01T10:44:28;9.20;;;4.85;;
35969;SDS011;22448;51.298;6.430;2023-08-01T10:47:01;10.93;;;4.40;;
35969;SDS011;22448;51.298;6.430;2023-08-01T10:52:20;8.95;;;4.45;;
35969;SDS011;22448;51.298;6.430;2023-08-01T10:55:03;14.32;;;5.50;;
35969;SDS011;22448;51.298;6.430;2023-08-01T10:57:35;9.98;;;4.50;;
35969;SDS011;22448;51.298;6.430;2023-08-01T11:00:03;12.23;;;4.15;;
35969;SDS011;22448;51.298;6.430;2023-08-01T11:02:36;8.07;;;4.07;;
35969;SDS011;22448;51.298;6.430;2023-08-01T11:05:04;11.85;;;4.38;;
35969;SDS011;22448;51.298;6.430;2023-08-01T11:07:35;8.35;;;4.25;;
35969;SDS011;22448;51.298;6.430;2023-08-01T11:10:07;9.68;;;3.95;;
35969;SDS011;22448;51.298;6.430;2023-08-01T11:12:36;10.77;;;3.50;;
35969;SDS011;22448;51.298;6.430;2023-08-01T11:15:06;12.95;;;3.88;;
35969;SDS011;22448;51.298;6.430;2023-08-01T11:17:53;12.13;;;3.80;;
35969;SDS011;22448;51.298;6.430;2023-08-01T11:20:22;9.00;;;3.08;;
35969;SDS011;22448;51.298;6.430;2023-08-01T11:22:54;9.63;;;3.40;;
35969;SDS011;22448;51.298;6.430;2023-08-01T11:25:45;5.75;;;3.03;;
35969;SDS011;22448;51.298;6.430;2023-08-01T11:28:16;12.18;;;3.60;;
35969;SDS011;22448;51.298;6.430;2023-08-01T11:30:43;10.75;;;3.35;;
35969;SDS011;22448;51.298;6.430;2023-08-01T11:33:16;7.45;;;3.00;;
35969;SDS011;22448;51.298;6.430;2023-08-01T11:35:44;9.88;;;3.60;;
35969;SDS011;22448;51.298;6.430;2023-08-01T11:38:12;9.73;;;3.38;;
35969;SDS011;22448;51.298;6.430;2023-08-01T11:40:39;5.95;;;2.17;;
35969;SDS011;22448;51.298;6.430;2023-08-01T11:43:07;10.18;;;2.92;;
35969;SDS011;22448;51.298;6.430;2023-08-01T11:45:34;8.07;;;2.58;;
35969;SDS011;22448;51.298;6.430;2023-08-01T11:48:01;6.85;;;2.17;;
35969;SDS011;22448;51.298;6.430;2023-08-01T11:50:28;8.57;;;2.78;;
35969;SDS011;22448;51.298;6.430;2023-08-01T11:52:55;6.80;;;2.78;;
35969;SDS011;22448;51.298;6.430;2023-08-01T11:55:25;6.95;;;2.55;;
35969;SDS011;22448;51.298;6.430;2023-08-01T11:57:56;8.85;;;3.28;;
35969;SDS011;22448;51.298;6.430;2023-08-01T12:00:25;9.88;;;3.30;;
35969;SDS011;22448;51.298;6.430;2023-08-01T12:03:04;6.25;;;2.28;;
35969;SDS011;22448;51.298;6.430;2023-08-01T12:05:32;10.50;;;3.63;;
35969;SDS011;22448;51.298;6.430;2023-08-01T12:08:13;9.20;;;3.08;;
35969;SDS011;22448;51.298;6.430;2023-08-01T12:10:42;7.10;;;3.05;;
35969;SDS011;22448;51.298;6.430;2023-08-01T12:13:23;10.00;;;2.78;;
35969;SDS011;22448;51.298;6.430;2023-08-01T12:15:51;7.00;;;2.90;;
35969;SDS011;22448;51.298;6.430;2023-08-01T12:18:23;10.63;;;3.20;;
35969;SDS011;22448;51.298;6.430;2023-08-01T12:20:54;11.45;;;3.63;;
35969;SDS011;22448;51.298;6.430;2023-08-01T12:23:21;7.43;;;3.17;;
35969;SDS011;22448;51.298;6.430;2023-08-01T12:25:49;10.23;;;3.10;;
35969;SDS011;22448;51.298;6.430;2023-08-01T12:28:16;10.68;;;3.42;;
35969;SDS011;22448;51.298;6.430;2023-08-01T12:30:43;15.93;;;3.30;;
35969;SDS011;22448;51.298;6.430;2023-08-01T12:33:11;8.07;;;2.60;;
35969;SDS011;22448;51.298;6.430;2023-08-01T12:35:41;9.30;;;2.58;;
35969;SDS011;22448;51.298;6.430;2023-08-01T12:38:09;12.50;;;2.55;;
35969;SDS011;22448;51.298;6.430;2023-08-01T12:40:36;8.90;;;3.55;;
35969;SDS011;22448;51.298;6.430;2023-08-01T12:43:03;14.93;;;3.00;;
35969;SDS011;22448;51.298;6.430;2023-08-01T12:45:31;14.73;;;2.85;;
35969;SDS011;22448;51.298;6.430;2023-08-01T12:47:59;9.57;;;3.00;;
35969;SDS011;22448;51.298;6.430;2023-08-01T12:50:26;14.30;;;3.72;;
35969;SDS011;22448;51.298;6.430;2023-08-01T12:52:53;15.05;;;3.50;;
35969;SDS011;22448;51.298;6.430;2023-08-01T12:55:20;12.20;;;3.30;;
35969;SDS011;22448;51.298;6.430;2023-08-01T12:57:47;15.18;;;3.85;;
35969;SDS011;22448;51.298;6.430;2023-08-01T13:00:14;13.07;;;3.00;;
35969;SDS011;22448;51.298;6.430;2023-08-01T13:02:41;10.13;;;3.00;;
35969;SDS011;22448;51.298;6.430;2023-08-01T13:05:09;8.50;;;2.78;;
35969;SDS011;22448;51.298;6.430;2023-08-01T13:07:36;9.63;;;2.80;;
35969;SDS011;22448;51.298;6.430;2023-08-01T13:10:03;10.32;;;2.55;;
35969;SDS011;22448;51.298;6.430;2023-08-01T13:12:30;8.07;;;2.47;;
35969;SDS011;22448;51.298;6.430;2023-08-01T13:14:57;11.10;;;2.70;;
35969;SDS011;22448;51.298;6.430;2023-08-01T13:17:43;9.20;;;2.15;;
35969;SDS011;22448;51.298;6.430;2023-08-01T13:20:10;11.07;;;2.60;;
35969;SDS011;22448;51.298;6.430;2023-08-01T13:22:37;8.13;;;2.35;;
35969;SDS011;22448;51.298;6.430;2023-08-01T13:25:04;5.40;;;1.92;;
35969;SDS011;22448;51.298;6.430;2023-08-01T13:27:34;10.25;;;2.58;;
35969;SDS011;22448;51.298;6.430;2023-08-01T13:30:02;7.28;;;2.53;;
35969;SDS011;22448;51.298;6.430;2023-08-01T13:32:30;9.20;;;2.60;;
35969;SDS011;22448;51.298;6.430;2023-08-01T13:34:56;9.20;;;2.55;;
35969;SDS011;22448;51.298;6.430;2023-08-01T13:37:24;9.32;;;2.70;;
35969;SDS011;22448;51.298;6.430;2023-08-01T13:39:51;11.35;;;2.58;;
35969;SDS011;22448;51.298;6.430;2023-08-01T13:42:18;9.48;;;2.30;;
35969;SDS011;22448;51.298;6.430;2023-08-01T13:44:45;7.75;;;2.33;;
35969;SDS011;22448;51.298;6.430;2023-08-01T13:47:12;9.65;;;2.75;;
35969;SDS011;22448;51.298;6.430;2023-08-01T13:49:39;9.68;;;2.45;;
35969;SDS011;22448;51.298;6.430;2023-08-01T13:52:06;11.02;;;2.80;;
35969;SDS011;22448;51.298;6.430;2023-08-01T13:54:33;6.28;;;2.25;;
35969;SDS011;22448;51.298;6.430;2023-08-01T13:57:00;8.57;;;2.85;;
35969;SDS011;22448;51.298;6.430;2023-08-01T13:59:28;9.10;;;2.17;;
35969;SDS011;22448;51.298;6.430;2023-08-01T14:01:55;11.73;;;2.78;;
35969;SDS011;22448;51.298;6.430;2023-08-01T14:04:23;11.00;;;2.80;;
35969;SDS011;22448;51.298;6.430;2023-08-01T14:06:50;9.77;;;2.60;;
35969;SDS011;22448;51.298;6.430;2023-08-01T14:09:17;11.43;;;3.22;;
35969;SDS011;22448;51.298;6.430;2023-08-01T14:11:44;16.48;;;2.85;;
35969;SDS011;22448;51.298;6.430;2023-08-01T14:14:11;7.68;;;2.53;;
35969;SDS011;22448;51.298;6.430;2023-08-01T14:16:38;8.65;;;2.55;;
35969;SDS011;22448;51.298;6.430;2023-08-01T14:19:06;7.35;;;2.50;;
35969;SDS011;22448;51.298;6.430;2023-08-01T14:21:33;8.77;;;2.58;;
35969;SDS011;22448;51.298;6.430;2023-08-01T14:24:01;13.38;;;2.70;;
35969;SDS011;22448;51.298;6.430;2023-08-01T14:26:28;8.07;;;2.40;;
35969;SDS011;22448;51.298;6.430;2023-08-01T14:28:55;10.18;;;3.00;;
35969;SDS011;22448;51.298;6.430;2023-08-01T14:31:22;8.95;;;2.70;;
35969;SDS011;22448;51.298;6.430;2023-08-01T14:33:49;10.23;;;2.53;;
35969;SDS011;22448;51.298;6.430;2023-08-01T14:36:16;6.82;;;2.85;;
35969;SDS011;22448;51.298;6.430;2023-08-01T14:38:43;7.80;;;2.20;;
35969;SDS011;22448;51.298;6.430;2023-08-01T14:41:10;9.98;;;2.30;;